Accueil
METAR-TAF:

METAR-TAF

Aéroports :

Aéroport international de Ouagadougou

Ouagadougou, Burkina Faso

latitude: 12-21N, longitude: 001-31W, altitude: 316 m

Observation

Le bulletin a été fait il y a 1 heure et 18 minutes, à 16:00 UTC
Vent 6 kt de nord/nord-est
Température 32°C
Humidité 29%
Pression 1011 hPa
Visibilité: 6000 m

METAR: DFFD 201600Z 02006KT 6000 NSC 32/12 Q1011 NOSIG

Heure: 17:18 (17:18 UTC)

Prévision

Le bulletin a été fait il y a 6 heures et 18 minutes, à 11:00 UTC
Prévision valable du 20 à 12 UTC au 21 à 18 UTC
Vent 8 kt de nord/nord-est
Visibilité: 8000 m
Temporairement
du 20 à 17 UTC au 20 à 20 UTC
Visibilité: 4000 m
poussière généralisée
Evoluant progressivement
du 21 à 04 UTC au 21 à 06 UTC
Visibilité: 4000 m
poussière généralisée

TAF: DFFD 201100Z 2012/2118 02008KT 8000 NSC TEMPO 2017/2020 4000 DU BECMG 2104/2106 4000 DU

Observations et prévisions météorologiques de plus de 4000 aéroports (messages METAR et TAF).

Les stations disponibles sont représentées par des disques jaunes et rouges sur la carte.

Passer la souris dessus pour voir le nom de la station.

Cliquer dessus pour voir les observations et prévisions météorologiques.

Pour changer de carte: cliquez sur les boutons verts avec une croix noire pour zoomer, sur le bouton vert avec un tiret pour effectuer un zoom arrière, ou sur les flèches vertes pour les cartes adjacentes.


METAR-TAF: